sensor_id;sensor_type;location;lat;lon;timestamp;P1;durP1;ratioP1;P2;durP2;ratioP2
22152;SDS011;11242;50.536;12.688;2023-09-30T00:00:58;30.10;;;15.77;;
22152;SDS011;11242;50.536;12.688;2023-09-30T00:03:23;34.47;;;16.48;;
22152;SDS011;11242;50.536;12.688;2023-09-30T00:05:49;30.50;;;15.70;;
22152;SDS011;11242;50.536;12.688;2023-09-30T00:08:15;32.53;;;16.27;;
22152;SDS011;11242;50.536;12.688;2023-09-30T00:10:41;30.85;;;15.68;;
22152;SDS011;11242;50.536;12.688;2023-09-30T00:13:06;30.58;;;15.18;;
22152;SDS011;11242;50.536;12.688;2023-09-30T00:15:32;32.50;;;16.60;;
22152;SDS011;11242;50.536;12.688;2023-09-30T00:17:58;31.75;;;16.08;;
22152;SDS011;11242;50.536;12.688;2023-09-30T00:20:24;29.40;;;15.90;;
22152;SDS011;11242;50.536;12.688;2023-09-30T00:22:50;43.35;;;15.95;;
22152;SDS011;11242;50.536;12.688;2023-09-30T00:25:15;31.90;;;16.30;;
22152;SDS011;11242;50.536;12.688;2023-09-30T00:27:41;31.33;;;15.52;;
22152;SDS011;11242;50.536;12.688;2023-09-30T00:30:06;28.95;;;15.55;;
22152;SDS011;11242;50.536;12.688;2023-09-30T00:32:33;28.85;;;15.45;;
22152;SDS011;11242;50.536;12.688;2023-09-30T00:35:01;30.88;;;16.35;;
22152;SDS011;11242;50.536;12.688;2023-09-30T00:37:26;28.98;;;15.63;;
22152;SDS011;11242;50.536;12.688;2023-09-30T00:39:52;30.08;;;15.27;;
22152;SDS011;11242;50.536;12.688;2023-09-30T00:42:18;34.17;;;16.30;;
22152;SDS011;11242;50.536;12.688;2023-09-30T00:44:45;30.25;;;14.90;;
22152;SDS011;11242;50.536;12.688;2023-09-30T00:47:12;29.33;;;14.85;;
22152;SDS011;11242;50.536;12.688;2023-09-30T00:49:40;32.53;;;15.98;;
22152;SDS011;11242;50.536;12.688;2023-09-30T00:52:08;27.55;;;14.60;;
22152;SDS011;11242;50.536;12.688;2023-09-30T00:54:34;12.52;;;7.65;;
22152;SDS011;11242;50.536;12.688;2023-09-30T00:57:03;19.52;;;9.25;;
22152;SDS011;11242;50.536;12.688;2023-09-30T00:59:30;12.65;;;7.00;;
22152;SDS011;11242;50.536;12.688;2023-09-30T01:01:57;11.32;;;5.78;;
22152;SDS011;11242;50.536;12.688;2023-09-30T01:04:24;7.85;;;4.72;;
22152;SDS011;11242;50.536;12.688;2023-09-30T01:06:52;6.32;;;4.15;;
22152;SDS011;11242;50.536;12.688;2023-09-30T01:09:18;7.00;;;4.28;;
22152;SDS011;11242;50.536;12.688;2023-09-30T01:11:44;6.72;;;3.83;;
22152;SDS011;11242;50.536;12.688;2023-09-30T01:14:29;7.05;;;4.35;;
22152;SDS011;11242;50.536;12.688;2023-09-30T01:16:56;6.95;;;4.40;;
22152;SDS011;11242;50.536;12.688;2023-09-30T01:19:23;7.07;;;4.70;;
22152;SDS011;11242;50.536;12.688;2023-09-30T01:21:53;7.60;;;4.75;;
22152;SDS011;11242;50.536;12.688;2023-09-30T01:24:21;6.68;;;4.55;;
22152;SDS011;11242;50.536;12.688;2023-09-30T01:26:47;7.40;;;4.60;;
22152;SDS011;11242;50.536;12.688;2023-09-30T01:29:13;7.22;;;4.97;;
22152;SDS011;11242;50.536;12.688;2023-09-30T01:31:39;5.63;;;4.20;;
22152;SDS011;11242;50.536;12.688;2023-09-30T01:34:05;7.90;;;3.95;;
22152;SDS011;11242;50.536;12.688;2023-09-30T01:36:31;5.20;;;3.70;;
22152;SDS011;11242;50.536;12.688;2023-09-30T01:38:57;4.38;;;2.75;;
22152;SDS011;11242;50.536;12.688;2023-09-30T01:41:23;5.75;;;3.13;;
22152;SDS011;11242;50.536;12.688;2023-09-30T01:43:48;5.70;;;3.00;;
22152;SDS011;11242;50.536;12.688;2023-09-30T01:46:15;3.85;;;3.00;;
22152;SDS011;11242;50.536;12.688;2023-09-30T01:48:40;5.50;;;3.17;;
22152;SDS011;11242;50.536;12.688;2023-09-30T01:51:06;3.97;;;3.08;;
22152;SDS011;11242;50.536;12.688;2023-09-30T01:53:32;6.72;;;3.17;;
22152;SDS011;11242;50.536;12.688;2023-09-30T01:55:58;4.82;;;3.05;;
22152;SDS011;11242;50.536;12.688;2023-09-30T01:58:24;5.90;;;3.63;;
22152;SDS011;11242;50.536;12.688;2023-09-30T02:00:51;6.90;;;3.85;;
22152;SDS011;11242;50.536;12.688;2023-09-30T02:03:17;5.47;;;3.58;;
22152;SDS011;11242;50.536;12.688;2023-09-30T02:05:43;6.55;;;3.63;;
22152;SDS011;11242;50.536;12.688;2023-09-30T02:08:09;7.30;;;4.30;;
22152;SDS011;11242;50.536;12.688;2023-09-30T02:10:35;7.85;;;3.88;;
22152;SDS011;11242;50.536;12.688;2023-09-30T02:13:00;6.28;;;4.07;;
22152;SDS011;11242;50.536;12.688;2023-09-30T02:15:27;6.68;;;4.07;;
22152;SDS011;11242;50.536;12.688;2023-09-30T02:17:52;8.35;;;4.70;;
22152;SDS011;11242;50.536;12.688;2023-09-30T02:20:18;7.45;;;4.40;;
22152;SDS011;11242;50.536;12.688;2023-09-30T02:22:47;7.30;;;4.30;;
22152;SDS011;11242;50.536;12.688;2023-09-30T02:25:12;10.27;;;4.60;;
22152;SDS011;11242;50.536;12.688;2023-09-30T02:27:41;8.85;;;5.20;;
22152;SDS011;11242;50.536;12.688;2023-09-30T02:30:08;10.80;;;5.68;;
22152;SDS011;11242;50.536;12.688;2023-09-30T02:32:36;12.13;;;6.93;;
22152;SDS011;11242;50.536;12.688;2023-09-30T02:35:05;9.48;;;6.90;;
22152;SDS011;11242;50.536;12.688;2023-09-30T02:37:32;12.65;;;7.38;;
22152;SDS011;11242;50.536;12.688;2023-09-30T02:40:02;10.82;;;7.30;;
22152;SDS011;11242;50.536;12.688;2023-09-30T02:42:30;11.75;;;7.28;;
22152;SDS011;11242;50.536;12.688;2023-09-30T02:44:56;12.68;;;6.90;;
22152;SDS011;11242;50.536;12.688;2023-09-30T02:47:25;9.93;;;6.80;;
22152;SDS011;11242;50.536;12.688;2023-09-30T02:49:50;11.63;;;7.25;;
22152;SDS011;11242;50.536;12.688;2023-09-30T02:52:16;13.20;;;7.57;;
22152;SDS011;11242;50.536;12.688;2023-09-30T02:54:41;12.20;;;7.70;;
22152;SDS011;11242;50.536;12.688;2023-09-30T02:57:07;12.07;;;7.55;;
22152;SDS011;11242;50.536;12.688;2023-09-30T02:59:34;13.60;;;9.00;;
22152;SDS011;11242;50.536;12.688;2023-09-30T03:02:01;13.57;;;8.82;;
22152;SDS011;11242;50.536;12.688;2023-09-30T03:04:28;12.27;;;8.57;;
22152;SDS011;11242;50.536;12.688;2023-09-30T03:06:53;12.93;;;9.02;;
22152;SDS011;11242;50.536;12.688;2023-09-30T03:09:21;12.88;;;9.88;;
22152;SDS011;11242;50.536;12.688;2023-09-30T03:11:47;15.40;;;9.77;;
22152;SDS011;11242;50.536;12.688;2023-09-30T03:14:13;12.40;;;9.77;;
22152;SDS011;11242;50.536;12.688;2023-09-30T03:16:39;15.20;;;10.75;;
22152;SDS011;11242;50.536;12.688;2023-09-30T03:19:06;15.63;;;9.98;;
22152;SDS011;11242;50.536;12.688;2023-09-30T03:21:33;12.48;;;9.15;;
22152;SDS011;11242;50.536;12.688;2023-09-30T03:24:04;13.73;;;9.77;;
22152;SDS011;11242;50.536;12.688;2023-09-30T03:26:31;16.60;;;10.35;;
22152;SDS011;11242;50.536;12.688;2023-09-30T03:28:56;13.38;;;10.27;;
22152;SDS011;11242;50.536;12.688;2023-09-30T03:31:22;15.75;;;10.82;;
22152;SDS011;11242;50.536;12.688;2023-09-30T03:33:50;16.85;;;11.30;;
22152;SDS011;11242;50.536;12.688;2023-09-30T03:36:22;14.27;;;11.13;;
22152;SDS011;11242;50.536;12.688;2023-09-30T03:38:51;14.00;;;10.80;;
22152;SDS011;11242;50.536;12.688;2023-09-30T03:41:20;15.88;;;10.40;;
22152;SDS011;11242;50.536;12.688;2023-09-30T03:43:46;16.90;;;12.27;;
22152;SDS011;11242;50.536;12.688;2023-09-30T03:46:12;21.13;;;13.93;;
22152;SDS011;11242;50.536;12.688;2023-09-30T03:48:38;21.50;;;14.43;;
22152;SDS011;11242;50.536;12.688;2023-09-30T03:51:11;25.67;;;18.77;;
22152;SDS011;11242;50.536;12.688;2023-09-30T03:53:43;26.92;;;18.60;;
22152;SDS011;11242;50.536;12.688;2023-09-30T03:56:11;28.92;;;18.80;;
22152;SDS011;11242;50.536;12.688;2023-09-30T03:58:38;27.15;;;19.80;;
22152;SDS011;11242;50.536;12.688;2023-09-30T04:01:05;33.63;;;19.83;;
22152;SDS011;11242;50.536;12.688;2023-09-30T04:03:31;32.78;;;18.90;;
22152;SDS011;11242;50.536;12.688;2023-09-30T04:06:04;28.20;;;19.27;;
22152;SDS011;11242;50.536;12.688;2023-09-30T04:08:30;28.10;;;17.58;;
22152;SDS011;11242;50.536;12.688;2023-09-30T04:10:58;26.08;;;16.25;;
22152;SDS011;11242;50.536;12.688;2023-09-30T04:13:24;23.25;;;14.88;;
22152;SDS011;11242;50.536;12.688;2023-09-30T04:15:50;24.98;;;12.88;;
22152;SDS011;11242;50.536;12.688;2023-09-30T04:18:16;19.08;;;12.45;;
22152;SDS011;11242;50.536;12.688;2023-09-30T04:20:41;19.55;;;13.00;;
22152;SDS011;11242;50.536;12.688;2023-09-30T04:23:07;18.08;;;12.05;;
22152;SDS011;11242;50.536;12.688;2023-09-30T04:25:35;20.35;;;11.85;;
22152;SDS011;11242;50.536;12.688;2023-09-30T04:28:00;21.17;;;12.25;;
22152;SDS011;11242;50.536;12.688;2023-09-30T04:30:28;21.80;;;12.13;;
22152;SDS011;11242;50.536;12.688;2023-09-30T04:32:54;19.55;;;12.00;;
22152;SDS011;11242;50.536;12.688;2023-09-30T04:35:20;18.40;;;11.25;;
22152;SDS011;11242;50.536;12.688;2023-09-30T04:37:46;17.27;;;11.63;;
22152;SDS011;11242;50.536;12.688;2023-09-30T04:40:12;21.02;;;11.90;;
22152;SDS011;11242;50.536;12.688;2023-09-30T04:42:41;19.00;;;11.48;;
22152;SDS011;11242;50.536;12.688;2023-09-30T04:45:09;19.38;;;11.88;;
22152;SDS011;11242;50.536;12.688;2023-09-30T04:47:36;25.17;;;13.38;;
22152;SDS011;11242;50.536;12.688;2023-09-30T04:50:04;22.13;;;12.52;;
22152;SDS011;11242;50.536;12.688;2023-09-30T04:52:33;20.77;;;11.93;;
22152;SDS011;11242;50.536;12.688;2023-09-30T04:55:02;17.58;;;11.40;;
22152;SDS011;11242;50.536;12.688;2023-09-30T04:57:29;20.38;;;12.90;;
22152;SDS011;11242;50.536;12.688;2023-09-30T04:59:55;23.90;;;13.05;;
22152;SDS011;11242;50.536;12.688;2023-09-30T05:02:22;23.25;;;13.73;;
22152;SDS011;11242;50.536;12.688;2023-09-30T05:04:48;19.45;;;13.02;;
22152;SDS011;11242;50.536;12.688;2023-09-30T05:07:14;20.42;;;13.57;;
22152;SDS011;11242;50.536;12.688;2023-09-30T05:09:40;21.20;;;13.60;;
22152;SDS011;11242;50.536;12.688;2023-09-30T05:12:06;21.67;;;12.85;;
22152;SDS011;11242;50.536;12.688;2023-09-30T05:14:32;20.40;;;13.05;;
22152;SDS011;11242;50.536;12.688;2023-09-30T05:16:58;21.00;;;12.77;;
22152;SDS011;11242;50.536;12.688;2023-09-30T05:19:24;19.95;;;12.25;;
22152;SDS011;11242;50.536;12.688;2023-09-30T05:21:49;18.10;;;12.13;;
22152;SDS011;11242;50.536;12.688;2023-09-30T05:24:16;20.73;;;12.18;;
22152;SDS011;11242;50.536;12.688;2023-09-30T05:26:44;21.70;;;11.75;;
22152;SDS011;11242;50.536;12.688;2023-09-30T05:29:10;18.20;;;11.32;;
22152;SDS011;11242;50.536;12.688;2023-09-30T05:31:35;22.42;;;12.02;;
22152;SDS011;11242;50.536;12.688;2023-09-30T05:34:02;22.23;;;11.93;;
22152;SDS011;11242;50.536;12.688;2023-09-30T05:36:27;21.98;;;12.20;;
22152;SDS011;11242;50.536;12.688;2023-09-30T05:38:54;18.58;;;12.88;;
22152;SDS011;11242;50.536;12.688;2023-09-30T05:41:23;28.33;;;12.85;;
22152;SDS011;11242;50.536;12.688;2023-09-30T05:43:49;21.65;;;12.52;;
22152;SDS011;11242;50.536;12.688;2023-09-30T05:46:15;18.67;;;11.90;;
22152;SDS011;11242;50.536;12.688;2023-09-30T05:48:41;22.23;;;12.98;;
22152;SDS011;11242;50.536;12.688;2023-09-30T05:51:07;20.73;;;12.48;;
22152;SDS011;11242;50.536;12.688;2023-09-30T05:53:33;22.25;;;13.02;;
22152;SDS011;11242;50.536;12.688;2023-09-30T05:55:59;24.00;;;14.35;;
22152;SDS011;11242;50.536;12.688;2023-09-30T05:58:25;23.00;;;14.68;;
22152;SDS011;11242;50.536;12.688;2023-09-30T06:00:51;25.77;;;14.45;;
22152;SDS011;11242;50.536;12.688;2023-09-30T06:03:20;24.40;;;14.38;;
22152;SDS011;11242;50.536;12.688;2023-09-30T06:05:47;25.48;;;15.27;;
22152;SDS011;11242;50.536;12.688;2023-09-30T06:08:14;28.88;;;18.42;;
22152;SDS011;11242;50.536;12.688;2023-09-30T06:10:42;27.33;;;16.73;;
22152;SDS011;11242;50.536;12.688;2023-09-30T06:13:09;29.95;;;19.98;;
22152;SDS011;11242;50.536;12.688;2023-09-30T06:15:38;29.30;;;19.63;;
22152;SDS011;11242;50.536;12.688;2023-09-30T06:18:05;34.45;;;22.02;;
22152;SDS011;11242;50.536;12.688;2023-09-30T06:20:31;35.10;;;22.88;;
22152;SDS011;11242;50.536;12.688;2023-09-30T06:22:58;34.67;;;20.55;;
22152;SDS011;11242;50.536;12.688;2023-09-30T06:25:25;24.58;;;14.95;;
22152;SDS011;11242;50.536;12.688;2023-09-30T06:27:52;26.05;;;15.73;;
22152;SDS011;11242;50.536;12.688;2023-09-30T06:30:20;29.80;;;18.17;;
22152;SDS011;11242;50.536;12.688;2023-09-30T06:32:46;36.90;;;22.73;;
22152;SDS011;11242;50.536;12.688;2023-09-30T06:35:12;37.72;;;21.80;;
22152;SDS011;11242;50.536;12.688;2023-09-30T06:37:39;31.80;;;19.25;;
22152;SDS011;11242;50.536;12.688;2023-09-30T06:40:05;33.92;;;21.33;;
22152;SDS011;11242;50.536;12.688;2023-09-30T06:42:33;30.75;;;18.52;;
22152;SDS011;11242;50.536;12.688;2023-09-30T06:45:00;24.25;;;16.25;;
22152;SDS011;11242;50.536;12.688;2023-09-30T06:47:30;30.55;;;18.70;;
22152;SDS011;11242;50.536;12.688;2023-09-30T06:49:59;21.88;;;14.93;;
22152;SDS011;11242;50.536;12.688;2023-09-30T06:52:33;24.38;;;17.33;;
22152;SDS011;11242;50.536;12.688;2023-09-30T06:55:00;23.52;;;14.07;;
22152;SDS011;11242;50.536;12.688;2023-09-30T06:57:26;22.42;;;14.70;;
22152;SDS011;11242;50.536;12.688;2023-09-30T06:59:52;26.02;;;15.38;;
22152;SDS011;11242;50.536;12.688;2023-09-30T07:02:17;25.33;;;13.68;;
22152;SDS011;11242;50.536;12.688;2023-09-30T07:04:43;22.45;;;14.32;;
22152;SDS011;11242;50.536;12.688;2023-09-30T07:07:08;24.98;;;12.88;;
22152;SDS011;11242;50.536;12.688;2023-09-30T07:09:34;22.77;;;13.95;;
22152;SDS011;11242;50.536;12.688;2023-09-30T07:12:01;20.73;;;13.30;;
22152;SDS011;11242;50.536;12.688;2023-09-30T07:14:27;22.02;;;13.90;;
22152;SDS011;11242;50.536;12.688;2023-09-30T07:16:52;23.35;;;13.32;;
22152;SDS011;11242;50.536;12.688;2023-09-30T07:19:18;23.33;;;11.45;;
22152;SDS011;11242;50.536;12.688;2023-09-30T07:21:43;26.25;;;11.63;;
22152;SDS011;11242;50.536;12.688;2023-09-30T07:24:11;20.80;;;10.98;;
22152;SDS011;11242;50.536;12.688;2023-09-30T07:26:37;18.73;;;10.38;;
22152;SDS011;11242;50.536;12.688;2023-09-30T07:29:02;19.35;;;10.15;;
22152;SDS011;11242;50.536;12.688;2023-09-30T07:31:32;19.02;;;11.15;;
22152;SDS011;11242;50.536;12.688;2023-09-30T07:33:59;24.08;;;11.73;;
22152;SDS011;11242;50.536;12.688;2023-09-30T07:36:25;16.90;;;11.30;;
22152;SDS011;11242;50.536;12.688;2023-09-30T07:38:50;20.88;;;10.48;;
22152;SDS011;11242;50.536;12.688;2023-09-30T07:41:16;25.92;;;10.02;;
22152;SDS011;11242;50.536;12.688;2023-09-30T07:43:42;22.10;;;10.90;;
22152;SDS011;11242;50.536;12.688;2023-09-30T07:46:08;21.73;;;11.52;;
22152;SDS011;11242;50.536;12.688;2023-09-30T07:48:34;14.90;;;7.75;;
22152;SDS011;11242;50.536;12.688;2023-09-30T07:51:00;19.65;;;8.95;;
22152;SDS011;11242;50.536;12.688;2023-09-30T07:53:27;18.92;;;10.63;;
22152;SDS011;11242;50.536;12.688;2023-09-30T07:55:53;20.52;;;9.10;;
22152;SDS011;11242;50.536;12.688;2023-09-30T07:58:19;17.20;;;7.95;;
22152;SDS011;11242;50.536;12.688;2023-09-30T08:00:45;17.77;;;7.95;;
22152;SDS011;11242;50.536;12.688;2023-09-30T08:03:11;17.45;;;7.72;;
22152;SDS011;11242;50.536;12.688;2023-09-30T08:05:37;15.63;;;7.53;;
22152;SDS011;11242;50.536;12.688;2023-09-30T08:08:03;16.98;;;7.50;;
22152;SDS011;11242;50.536;12.688;2023-09-30T08:10:29;17.50;;;8.27;;
22152;SDS011;11242;50.536;12.688;2023-09-30T08:12:56;15.18;;;7.75;;
22152;SDS011;11242;50.536;12.688;2023-09-30T08:15:24;18.42;;;8.73;;
22152;SDS011;11242;50.536;12.688;2023-09-30T08:17:50;18.65;;;9.05;;
22152;SDS011;11242;50.536;12.688;2023-09-30T08:20:15;20.63;;;8.05;;
22152;SDS011;11242;50.536;12.688;2023-09-30T08:22:41;16.92;;;7.93;;
22152;SDS011;11242;50.536;12.688;2023-09-30T08:25:07;17.05;;;9.02;;
22152;SDS011;11242;50.536;12.688;2023-09-30T08:27:33;18.10;;;8.80;;
22152;SDS011;11242;50.536;12.688;2023-09-30T08:29:59;17.13;;;8.35;;
22152;SDS011;11242;50.536;12.688;2023-09-30T08:32:25;15.50;;;9.05;;
22152;SDS011;11242;50.536;12.688;2023-09-30T08:34:50;15.45;;;9.73;;
22152;SDS011;11242;50.536;12.688;2023-09-30T08:37:16;16.95;;;10.15;;
22152;SDS011;11242;50.536;12.688;2023-09-30T08:39:42;18.73;;;9.48;;
22152;SDS011;11242;50.536;12.688;2023-09-30T08:42:10;18.85;;;9.60;;
22152;SDS011;11242;50.536;12.688;2023-09-30T08:44:37;15.60;;;9.30;;
22152;SDS011;11242;50.536;12.688;2023-09-30T08:47:05;14.93;;;9.18;;
22152;SDS011;11242;50.536;12.688;2023-09-30T08:49:39;17.42;;;8.57;;
22152;SDS011;11242;50.536;12.688;2023-09-30T08:52:06;18.88;;;8.85;;
22152;SDS011;11242;50.536;12.688;2023-09-30T08:54:34;13.48;;;8.05;;
22152;SDS011;11242;50.536;12.688;2023-09-30T08:57:00;12.50;;;6.90;;
22152;SDS011;11242;50.536;12.688;2023-09-30T08:59:26;16.67;;;7.60;;
22152;SDS011;11242;50.536;12.688;2023-09-30T09:01:53;14.15;;;7.63;;
22152;SDS011;11242;50.536;12.688;2023-09-30T09:04:18;13.77;;;7.05;;
22152;SDS011;11242;50.536;12.688;2023-09-30T09:06:44;13.43;;;7.85;;
22152;SDS011;11242;50.536;12.688;2023-09-30T09:09:14;16.45;;;7.28;;
22152;SDS011;11242;50.536;12.688;2023-09-30T09:11:45;12.18;;;6.75;;
22152;SDS011;11242;50.536;12.688;2023-09-30T09:14:11;15.43;;;7.78;;
22152;SDS011;11242;50.536;12.688;2023-09-30T09:16:37;13.50;;;6.75;;
22152;SDS011;11242;50.536;12.688;2023-09-30T09:19:15;15.23;;;7.78;;
22152;SDS011;11242;50.536;12.688;2023-09-30T09:21:52;12.68;;;7.00;;
22152;SDS011;11242;50.536;12.688;2023-09-30T09:24:27;12.90;;;7.03;;
22152;SDS011;11242;50.536;12.688;2023-09-30T09:27:11;16.20;;;7.25;;
22152;SDS011;11242;50.536;12.688;2023-09-30T09:29:39;13.13;;;5.13;;
22152;SDS011;11242;50.536;12.688;2023-09-30T09:37:13;13.13;;;8.13;;
22152;SDS011;11242;50.536;12.688;2023-09-30T09:39:48;10.48;;;5.47;;
22152;SDS011;11242;50.536;12.688;2023-09-30T09:42:23;11.82;;;6.18;;
22152;SDS011;11242;50.536;12.688;2023-09-30T09:44:57;9.45;;;4.60;;
22152;SDS011;11242;50.536;12.688;2023-09-30T09:47:24;12.48;;;4.50;;
22152;SDS011;11242;50.536;12.688;2023-09-30T09:49:50;9.30;;;4.43;;
22152;SDS011;11242;50.536;12.688;2023-09-30T09:52:18;11.30;;;5.85;;
22152;SDS011;11242;50.536;12.688;2023-09-30T09:54:45;44.72;;;27.98;;
22152;SDS011;11242;50.536;12.688;2023-09-30T09:57:13;13.77;;;7.78;;
22152;SDS011;11242;50.536;12.688;2023-09-30T09:59:41;9.52;;;5.50;;
22152;SDS011;11242;50.536;12.688;2023-09-30T10:02:10;16.42;;;12.07;;
22152;SDS011;11242;50.536;12.688;2023-09-30T10:04:42;11.30;;;4.90;;
22152;SDS011;11242;50.536;12.688;2023-09-30T10:09:48;11.98;;;6.20;;
22152;SDS011;11242;50.536;12.688;2023-09-30T10:12:17;8.73;;;5.15;;
22152;SDS011;11242;50.536;12.688;2023-09-30T10:14:44;10.20;;;5.13;;
22152;SDS011;11242;50.536;12.688;2023-09-30T10:17:10;11.55;;;3.92;;
22152;SDS011;11242;50.536;12.688;2023-09-30T10:19:36;7.55;;;4.00;;
22152;SDS011;11242;50.536;12.688;2023-09-30T10:22:29;9.60;;;3.55;;
22152;SDS011;11242;50.536;12.688;2023-09-30T10:24:55;13.45;;;7.43;;
22152;SDS011;11242;50.536;12.688;2023-09-30T10:29:48;11.35;;;4.18;;
22152;SDS011;11242;50.536;12.688;2023-09-30T10:32:19;14.13;;;6.93;;
22152;SDS011;11242;50.536;12.688;2023-09-30T10:34:48;8.40;;;4.03;;
22152;SDS011;11242;50.536;12.688;2023-09-30T10:37:19;13.00;;;8.88;;
22152;SDS011;11242;50.536;12.688;2023-09-30T10:39:53;12.68;;;7.90;;
22152;SDS011;11242;50.536;12.688;2023-09-30T10:45:08;8.25;;;4.55;;
22152;SDS011;11242;50.536;12.688;2023-09-30T10:50:53;12.20;;;3.58;;
22152;SDS011;11242;50.536;12.688;2023-09-30T10:53:21;7.38;;;3.45;;
22152;SDS011;11242;50.536;12.688;2023-09-30T10:55:54;9.05;;;3.10;;
22152;SDS011;11242;50.536;12.688;2023-09-30T10:58:20;8.50;;;3.22;;
22152;SDS011;11242;50.536;12.688;2023-09-30T11:00:53;8.10;;;3.03;;
22152;SDS011;11242;50.536;12.688;2023-09-30T11:05:48;6.95;;;3.33;;
22152;SDS011;11242;50.536;12.688;2023-09-30T11:08:16;13.15;;;3.85;;
22152;SDS011;11242;50.536;12.688;2023-09-30T11:10:48;8.90;;;3.35;;
22152;SDS011;11242;50.536;12.688;2023-09-30T11:13:15;8.90;;;3.55;;
22152;SDS011;11242;50.536;12.688;2023-09-30T11:15:41;8.88;;;3.15;;
22152;SDS011;11242;50.536;12.688;2023-09-30T11:18:15;11.50;;;3.47;;
22152;SDS011;11242;50.536;12.688;2023-09-30T11:20:44;6.88;;;2.70;;
22152;SDS011;11242;50.536;12.688;2023-09-30T11:23:12;8.50;;;3.05;;
22152;SDS011;11242;50.536;12.688;2023-09-30T11:25:39;7.28;;;3.00;;
22152;SDS011;11242;50.536;12.688;2023-09-30T11:28:18;9.55;;;3.40;;
22152;SDS011;11242;50.536;12.688;2023-09-30T11:30:56;8.60;;;3.20;;
22152;SDS011;11242;50.536;12.688;2023-09-30T11:33:31;6.70;;;3.08;;
22152;SDS011;11242;50.536;12.688;2023-09-30T11:36:03;10.18;;;3.28;;
22152;SDS011;11242;50.536;12.688;2023-09-30T11:38:34;6.75;;;3.03;;
22152;SDS011;11242;50.536;12.688;2023-09-30T11:41:00;7.43;;;3.20;;
22152;SDS011;11242;50.536;12.688;2023-09-30T11:43:33;7.63;;;2.55;;
22152;SDS011;11242;50.536;12.688;2023-09-30T11:48:31;5.95;;;3.03;;
22152;SDS011;11242;50.536;12.688;2023-09-30T11:50:58;8.45;;;3.00;;
22152;SDS011;11242;50.536;12.688;2023-09-30T11:53:25;8.82;;;3.17;;
22152;SDS011;11242;50.536;12.688;2023-09-30T11:55:51;10.63;;;3.25;;
22152;SDS011;11242;50.536;12.688;2023-09-30T11:58:20;8.55;;;3.05;;
22152;SDS011;11242;50.536;12.688;2023-09-30T12:00:45;6.65;;;2.83;;
22152;SDS011;11242;50.536;12.688;2023-09-30T12:03:11;8.50;;;2.92;;
22152;SDS011;11242;50.536;12.688;2023-09-30T12:05:36;8.25;;;3.13;;
22152;SDS011;11242;50.536;12.688;2023-09-30T12:08:02;11.00;;;3.38;;
22152;SDS011;11242;50.536;12.688;2023-09-30T12:10:28;6.28;;;3.08;;
22152;SDS011;11242;50.536;12.688;2023-09-30T12:12:55;8.02;;;3.30;;
22152;SDS011;11242;50.536;12.688;2023-09-30T12:15:21;6.82;;;3.40;;
22152;SDS011;11242;50.536;12.688;2023-09-30T12:17:47;6.13;;;2.92;;
22152;SDS011;11242;50.536;12.688;2023-09-30T12:20:12;9.20;;;3.05;;
22152;SDS011;11242;50.536;12.688;2023-09-30T12:22:40;6.68;;;2.90;;
22152;SDS011;11242;50.536;12.688;2023-09-30T12:25:06;7.10;;;2.65;;
22152;SDS011;11242;50.536;12.688;2023-09-30T12:27:33;4.85;;;2.58;;
22152;SDS011;11242;50.536;12.688;2023-09-30T12:29:59;6.80;;;2.20;;
22152;SDS011;11242;50.536;12.688;2023-09-30T12:32:25;7.72;;;3.05;;
22152;SDS011;11242;50.536;12.688;2023-09-30T12:34:52;6.35;;;2.70;;
22152;SDS011;11242;50.536;12.688;2023-09-30T12:37:20;9.73;;;2.95;;
22152;SDS011;11242;50.536;12.688;2023-09-30T12:39:45;6.22;;;2.78;;
22152;SDS011;11242;50.536;12.688;2023-09-30T12:42:11;7.15;;;2.70;;
22152;SDS011;11242;50.536;12.688;2023-09-30T12:44:37;10.00;;;3.00;;
22152;SDS011;11242;50.536;12.688;2023-09-30T12:47:04;7.70;;;3.20;;
22152;SDS011;11242;50.536;12.688;2023-09-30T12:49:30;7.70;;;2.63;;
22152;SDS011;11242;50.536;12.688;2023-09-30T12:51:56;4.40;;;2.20;;
22152;SDS011;11242;50.536;12.688;2023-09-30T12:54:24;8.27;;;2.63;;
22152;SDS011;11242;50.536;12.688;2023-09-30T12:56:50;5.47;;;2.60;;
22152;SDS011;11242;50.536;12.688;2023-09-30T12:59:16;4.85;;;2.63;;
22152;SDS011;11242;50.536;12.688;2023-09-30T13:01:49;5.88;;;2.38;;
22152;SDS011;11242;50.536;12.688;2023-09-30T13:04:14;4.57;;;2.47;;
22152;SDS011;11242;50.536;12.688;2023-09-30T13:06:40;5.55;;;2.42;;
22152;SDS011;11242;50.536;12.688;2023-09-30T13:09:06;6.20;;;2.50;;
22152;SDS011;11242;50.536;12.688;2023-09-30T13:11:33;5.07;;;2.50;;
22152;SDS011;11242;50.536;12.688;2023-09-30T13:13:59;8.32;;;2.75;;
22152;SDS011;11242;50.536;12.688;2023-09-30T13:16:25;8.52;;;2.50;;
22152;SDS011;11242;50.536;12.688;2023-09-30T13:18:51;6.60;;;2.65;;
22152;SDS011;11242;50.536;12.688;2023-09-30T13:21:19;5.80;;;2.53;;
22152;SDS011;11242;50.536;12.688;2023-09-30T13:23:45;6.55;;;2.63;;
22152;SDS011;11242;50.536;12.688;2023-09-30T13:26:11;6.13;;;2.22;;
22152;SDS011;11242;50.536;12.688;2023-09-30T13:28:36;5.13;;;2.22;;
22152;SDS011;11242;50.536;12.688;2023-09-30T13:31:02;6.40;;;2.38;;
22152;SDS011;11242;50.536;12.688;2023-09-30T13:33:27;6.72;;;2.63;;
22152;SDS011;11242;50.536;12.688;2023-09-30T13:35:53;5.20;;;2.08;;
22152;SDS011;11242;50.536;12.688;2023-09-30T13:38:20;4.47;;;2.05;;
22152;SDS011;11242;50.536;12.688;2023-09-30T13:40:46;5.20;;;1.88;;
22152;SDS011;11242;50.536;12.688;2023-09-30T13:43:11;3.63;;;2.00;;
22152;SDS011;11242;50.536;12.688;2023-09-30T13:45:37;6.55;;;2.97;;
22152;SDS011;11242;50.536;12.688;2023-09-30T13:48:03;5.68;;;2.58;;
22152;SDS011;11242;50.536;12.688;2023-09-30T13:50:29;3.95;;;1.80;;
22152;SDS011;11242;50.536;12.688;2023-09-30T13:52:55;4.93;;;2.28;;
22152;SDS011;11242;50.536;12.688;2023-09-30T13:55:21;3.20;;;1.85;;
22152;SDS011;11242;50.536;12.688;2023-09-30T13:57:46;4.72;;;2.20;;
22152;SDS011;11242;50.536;12.688;2023-09-30T14:00:13;4.47;;;2.17;;
22152;SDS011;11242;50.536;12.688;2023-09-30T14:02:39;3.60;;;1.90;;
22152;SDS011;11242;50.536;12.688;2023-09-30T14:05:05;5.15;;;2.15;;
22152;SDS011;11242;50.536;12.688;2023-09-30T14:07:37;5.60;;;2.05;;
22152;SDS011;11242;50.536;12.688;2023-09-30T14:10:03;4.68;;;2.15;;
22152;SDS011;11242;50.536;12.688;2023-09-30T14:12:30;5.38;;;2.50;;
22152;SDS011;11242;50.536;12.688;2023-09-30T14:14:56;3.45;;;1.63;;
22152;SDS011;11242;50.536;12.688;2023-09-30T14:17:22;6.95;;;2.25;;
22152;SDS011;11242;50.536;12.688;2023-09-30T14:19:47;3.53;;;2.08;;
22152;SDS011;11242;50.536;12.688;2023-09-30T14:22:13;3.85;;;2.45;;
22152;SDS011;11242;50.536;12.688;2023-09-30T14:24:38;3.35;;;2.10;;
22152;SDS011;11242;50.536;12.688;2023-09-30T14:27:04;2.45;;;1.52;;
22152;SDS011;11242;50.536;12.688;2023-09-30T14:29:30;4.68;;;1.80;;
22152;SDS011;11242;50.536;12.688;2023-09-30T14:31:57;3.55;;;2.05;;
22152;SDS011;11242;50.536;12.688;2023-09-30T14:34:23;3.95;;;2.10;;
22152;SDS011;11242;50.536;12.688;2023-09-30T14:36:49;6.45;;;2.20;;
22152;SDS011;11242;50.536;12.688;2023-09-30T14:39:15;6.40;;;2.50;;
22152;SDS011;11242;50.536;12.688;2023-09-30T14:41:44;5.40;;;2.50;;